createdAt,value
2023-02-19T00:02:08.700Z,13.80
2023-02-19T00:04:35.609Z,13.70
2023-02-19T00:07:02.530Z,13.40
2023-02-19T00:09:29.463Z,14.10
2023-02-19T00:11:56.282Z,13.80
2023-02-19T00:14:23.195Z,13.70
2023-02-19T00:16:50.489Z,13.50
2023-02-19T00:19:20.239Z,14.18
2023-02-19T00:21:48.001Z,13.73
2023-02-19T00:24:15.210Z,13.60
2023-02-19T00:26:43.365Z,13.60
2023-02-19T00:29:14.389Z,13.65
2023-02-19T00:31:41.739Z,13.77
2023-02-19T00:34:10.428Z,13.50
2023-02-19T00:36:39.163Z,13.50
2023-02-19T00:39:07.853Z,13.70
2023-02-19T00:41:34.742Z,13.80
2023-02-19T00:44:04.276Z,13.50
2023-02-19T00:46:32.470Z,13.52
2023-02-19T00:49:00.196Z,13.60
2023-02-19T00:51:32.403Z,13.60
2023-02-19T00:54:00.233Z,13.70
2023-02-19T00:56:28.084Z,14.40
2023-02-19T00:58:56.329Z,13.80
2023-02-19T01:01:23.271Z,14.30
2023-02-19T01:03:50.254Z,14.10
2023-02-19T01:06:19.677Z,13.70
2023-02-19T01:08:46.684Z,13.90
2023-02-19T01:11:14.508Z,14.40
2023-02-19T01:13:42.436Z,14.50
2023-02-19T01:16:18.354Z,14.47
2023-02-19T01:18:45.933Z,13.60
2023-02-19T01:21:15.732Z,14.10
2023-02-19T01:23:43.063Z,14.00
2023-02-19T01:26:14.371Z,13.85
2023-02-19T01:28:41.691Z,13.43
2023-02-19T01:31:13.560Z,14.05
2023-02-19T01:33:40.898Z,13.70
2023-02-19T01:36:07.977Z,13.68
2023-02-19T01:38:34.816Z,13.60
2023-02-19T01:41:04.783Z,13.50
2023-02-19T01:43:33.809Z,13.60
2023-02-19T01:46:01.154Z,13.57
2023-02-19T01:48:33.111Z,14.30
2023-02-19T01:51:19.628Z,13.60
2023-02-19T01:53:52.600Z,13.77
2023-02-19T01:56:21.232Z,13.40
2023-02-19T01:58:48.261Z,13.70
2023-02-19T02:01:15.114Z,13.40
2023-02-19T02:03:45.388Z,13.90
2023-02-19T02:06:18.025Z,13.50
2023-02-19T02:09:03.602Z,13.70
2023-02-19T02:11:31.079Z,13.50
2023-02-19T02:13:58.671Z,13.93
2023-02-19T02:16:49.374Z,14.10
2023-02-19T02:19:30.858Z,13.20
2023-02-19T02:22:12.467Z,13.40
2023-02-19T02:25:09.859Z,13.50
2023-02-19T02:27:45.719Z,13.60
2023-02-19T02:30:30.045Z,13.68
2023-02-19T02:33:13.490Z,14.10
2023-02-19T02:35:59.069Z,14.00
2023-02-19T02:38:29.918Z,13.73
2023-02-19T02:40:57.361Z,13.68
2023-02-19T02:43:24.556Z,13.75
2023-02-19T02:45:51.594Z,13.50
2023-02-19T02:48:57.570Z,13.93
2023-02-19T02:51:35.677Z,14.00
2023-02-19T02:54:30.416Z,13.57
2023-02-19T02:56:58.917Z,14.20
2023-02-19T02:59:28.892Z,13.60
2023-02-19T03:02:14.540Z,13.30
2023-02-19T03:05:21.390Z,13.70
2023-02-19T03:08:00.830Z,13.50
2023-02-19T03:10:45.966Z,13.90
2023-02-19T03:13:56.609Z,13.43
2023-02-19T03:16:47.113Z,14.30
2023-02-19T03:19:19.178Z,13.40
2023-02-19T03:22:16.836Z,13.80
2023-02-19T03:25:10.489Z,13.50
2023-02-19T03:27:40.921Z,13.50
2023-02-19T03:30:21.277Z,13.52
2023-02-19T03:33:12.253Z,13.65
2023-02-19T03:35:44.840Z,13.57
2023-02-19T03:38:37.296Z,13.80
2023-02-19T03:41:31.120Z,13.40
2023-02-19T03:44:12.491Z,13.77
2023-02-19T03:47:10.453Z,13.52
2023-02-19T03:50:06.773Z,13.50
2023-02-19T03:52:51.893Z,13.30
2023-02-19T03:55:41.837Z,14.70
2023-02-19T03:58:17.671Z,13.60
2023-02-19T04:01:00.239Z,13.73
2023-02-19T04:03:37.844Z,13.50
2023-02-19T04:06:12.245Z,13.50
2023-02-19T04:08:43.111Z,13.50
2023-02-19T04:11:12.000Z,13.52
2023-02-19T04:13:54.941Z,13.70
2023-02-19T04:16:25.056Z,14.10
2023-02-19T04:18:55.316Z,13.75
2023-02-19T04:21:23.844Z,13.50
2023-02-19T04:23:50.897Z,13.73
2023-02-19T04:26:20.179Z,14.07
2023-02-19T04:28:47.252Z,13.60
2023-02-19T04:31:14.885Z,13.50
2023-02-19T04:33:41.987Z,13.50
2023-02-19T04:36:10.939Z,13.38
2023-02-19T04:38:37.985Z,13.38
2023-02-19T04:41:04.964Z,13.70
2023-02-19T04:43:31.908Z,13.40
2023-02-19T04:46:02.341Z,13.32
2023-02-19T04:48:29.710Z,13.20
2023-02-19T04:50:56.669Z,13.50
2023-02-19T04:53:23.824Z,13.20
2023-02-19T04:55:53.270Z,13.40
2023-02-19T04:58:21.238Z,13.65
2023-02-19T05:00:52.190Z,13.50
2023-02-19T05:03:19.137Z,13.47
2023-02-19T05:05:45.950Z,13.60
2023-02-19T05:08:12.882Z,13.75
2023-02-19T05:10:39.873Z,13.63
2023-02-19T05:13:06.758Z,13.60
2023-02-19T05:15:33.661Z,13.50
2023-02-19T05:18:00.689Z,13.70
2023-02-19T05:20:27.626Z,13.30
2023-02-19T05:22:54.542Z,13.50
2023-02-19T05:25:21.772Z,13.60
2023-02-19T05:27:48.664Z,13.40
2023-02-19T05:30:15.624Z,13.73
2023-02-19T05:32:42.531Z,13.60
2023-02-19T05:35:09.361Z,13.70
2023-02-19T05:37:36.335Z,13.90
2023-02-19T05:40:03.362Z,13.70
2023-02-19T05:42:30.292Z,13.80
2023-02-19T05:44:57.137Z,14.25
2023-02-19T05:47:24.066Z,13.70
2023-02-19T05:49:50.909Z,13.80
2023-02-19T05:52:17.756Z,13.80
2023-02-19T05:54:44.580Z,13.60
2023-02-19T05:57:11.504Z,14.30
2023-02-19T05:59:38.341Z,13.68
2023-02-19T06:02:05.153Z,13.88
2023-02-19T06:04:32.074Z,13.50
2023-02-19T06:06:58.913Z,13.70
2023-02-19T06:09:25.780Z,14.90
2023-02-19T06:11:52.625Z,13.50
2023-02-19T06:14:19.598Z,13.80
2023-02-19T06:16:46.447Z,14.50
2023-02-19T06:19:13.329Z,13.70
2023-02-19T06:21:40.307Z,13.95
2023-02-19T06:24:10.363Z,13.57
2023-02-19T06:26:38.204Z,13.70
2023-02-19T06:29:05.046Z,13.88
2023-02-19T06:31:31.985Z,13.80
2023-02-19T06:33:58.946Z,13.60
2023-02-19T06:36:25.957Z,14.07
2023-02-19T06:38:52.871Z,13.80
2023-02-19T06:41:19.892Z,13.60
2023-02-19T06:43:47.199Z,13.75
2023-02-19T06:46:14.207Z,13.60
2023-02-19T06:48:43.731Z,14.55
2023-02-19T06:51:13.325Z,13.70
2023-02-19T06:53:40.279Z,13.90
2023-02-19T06:56:23.127Z,13.52
2023-02-19T06:58:50.063Z,13.40
2023-02-19T07:01:16.979Z,14.48
2023-02-19T07:03:44.005Z,13.40
2023-02-19T07:06:10.844Z,13.57
2023-02-19T07:08:37.872Z,13.63
2023-02-19T07:11:04.950Z,14.60
2023-02-19T07:13:31.865Z,13.40
2023-02-19T07:16:01.083Z,13.88
2023-02-19T07:18:32.299Z,13.73
2023-02-19T07:21:06.959Z,13.70
2023-02-19T07:23:34.253Z,13.88
2023-02-19T07:26:01.810Z,13.70
2023-02-19T07:28:28.650Z,13.48
2023-02-19T07:31:00.728Z,13.90
2023-02-19T07:33:27.768Z,13.70
2023-02-19T07:35:54.663Z,13.60
2023-02-19T07:38:23.284Z,13.70
2023-02-19T07:40:58.689Z,13.50
2023-02-19T07:43:27.694Z,13.60
2023-02-19T07:45:54.958Z,14.73
2023-02-19T07:48:21.813Z,18.60
2023-02-19T07:50:52.903Z,16.48
2023-02-19T07:53:20.586Z,15.50
2023-02-19T07:55:47.641Z,13.80
2023-02-19T07:58:14.561Z,14.10
2023-02-19T08:00:41.672Z,14.50
2023-02-19T08:03:08.732Z,13.73
2023-02-19T08:05:41.180Z,14.02
2023-02-19T08:08:09.585Z,13.70
2023-02-19T08:10:55.386Z,13.60
2023-02-19T08:13:22.937Z,14.82
2023-02-19T08:15:52.160Z,15.27
2023-02-19T08:18:21.768Z,14.40
2023-02-19T08:20:48.802Z,14.40
2023-02-19T08:23:16.025Z,14.10
2023-02-19T08:25:43.246Z,13.90
2023-02-19T08:28:11.330Z,13.90
2023-02-19T08:30:40.045Z,14.00
2023-02-19T08:33:08.230Z,14.10
2023-02-19T08:35:36.627Z,14.13
2023-02-19T08:38:04.972Z,14.95
2023-02-19T08:40:32.938Z,14.52
2023-02-19T08:43:07.809Z,14.40
2023-02-19T08:45:36.593Z,14.00
2023-02-19T08:48:03.627Z,13.90
2023-02-19T08:50:31.000Z,14.10
2023-02-19T08:53:00.098Z,13.70
2023-02-19T08:55:27.561Z,13.60
2023-02-19T08:57:54.925Z,14.40
2023-02-19T09:00:21.944Z,13.60
2023-02-19T09:02:49.409Z,13.10
2023-02-19T09:05:17.036Z,13.82
2023-02-19T09:07:43.904Z,13.20
2023-02-19T09:10:12.912Z,13.35
2023-02-19T09:12:40.626Z,13.20
2023-02-19T09:15:08.295Z,13.80
2023-02-19T09:17:35.336Z,13.73
2023-02-19T09:20:02.336Z,14.30
2023-02-19T09:22:29.233Z,13.60
2023-02-19T09:24:56.042Z,14.50
2023-02-19T09:27:22.923Z,14.30
2023-02-19T09:29:49.776Z,13.63
2023-02-19T09:32:18.797Z,13.30
2023-02-19T09:34:46.085Z,13.40
2023-02-19T09:37:13.090Z,13.68
2023-02-19T09:39:39.865Z,13.50
2023-02-19T09:42:12.932Z,13.90
2023-02-19T09:44:42.868Z,13.23
2023-02-19T09:47:17.580Z,13.80
2023-02-19T09:49:50.211Z,13.00
2023-02-19T09:52:24.495Z,13.40
2023-02-19T09:54:57.634Z,13.35
2023-02-19T09:57:26.842Z,13.05
2023-02-19T10:00:01.797Z,12.90
2023-02-19T10:02:30.862Z,13.68
2023-02-19T10:04:58.693Z,13.20
2023-02-19T10:07:43.406Z,13.20
2023-02-19T10:10:13.297Z,12.80
2023-02-19T10:12:45.787Z,13.10
2023-02-19T10:15:18.767Z,14.50
2023-02-19T10:17:45.688Z,12.90
2023-02-19T10:20:18.406Z,12.80
2023-02-19T10:22:45.697Z,12.90
2023-02-19T10:25:16.835Z,12.80
2023-02-19T10:27:44.425Z,12.80
2023-02-19T10:30:21.590Z,12.90
2023-02-19T10:33:02.240Z,12.90
2023-02-19T10:35:30.933Z,12.90
2023-02-19T10:37:58.146Z,12.80
2023-02-19T10:40:27.470Z,13.30
2023-02-19T10:43:00.962Z,12.90
2023-02-19T10:45:45.328Z,12.90
2023-02-19T10:48:27.512Z,12.97
2023-02-19T10:50:59.988Z,13.45
2023-02-19T10:53:41.339Z,12.90
2023-02-19T10:56:14.274Z,13.02
2023-02-19T10:58:44.742Z,12.93
2023-02-19T11:01:29.205Z,13.20
2023-02-19T11:04:16.464Z,12.90
2023-02-19T11:06:43.677Z,12.80
2023-02-19T11:09:22.872Z,13.48
2023-02-19T11:11:53.160Z,12.90
2023-02-19T11:14:24.170Z,12.88
2023-02-19T11:16:56.604Z,13.18
2023-02-19T11:19:31.910Z,13.30
2023-02-19T11:22:00.462Z,12.90
2023-02-19T11:24:34.907Z,13.00
2023-02-19T11:27:07.112Z,13.30
2023-02-19T11:29:37.380Z,13.10
2023-02-19T11:32:26.230Z,12.80
2023-02-19T11:35:13.428Z,13.10
2023-02-19T11:37:56.128Z,13.98
2023-02-19T11:40:38.062Z,13.00
2023-02-19T11:43:13.967Z,12.73
2023-02-19T11:46:09.762Z,13.20
2023-02-19T11:48:42.158Z,13.88
2023-02-19T11:51:30.878Z,13.05
2023-02-19T11:54:16.294Z,13.40
2023-02-19T11:56:45.135Z,13.30
2023-02-19T11:59:32.962Z,13.60
2023-02-19T12:02:18.185Z,14.20
2023-02-19T12:04:51.256Z,13.60
2023-02-19T12:07:40.225Z,14.90
2023-02-19T12:10:25.569Z,13.30
2023-02-19T12:13:13.645Z,13.70
2023-02-19T12:15:49.654Z,13.80
2023-02-19T12:18:22.480Z,13.25
2023-02-19T12:21:17.205Z,14.18
2023-02-19T12:24:22.010Z,13.87
2023-02-19T12:26:58.417Z,13.70
2023-02-19T12:29:36.266Z,13.70
2023-02-19T12:32:13.213Z,13.75
2023-02-19T12:35:21.519Z,13.00
2023-02-19T12:38:19.324Z,13.70
2023-02-19T12:40:57.964Z,14.50
2023-02-19T12:43:24.999Z,13.50
2023-02-19T12:46:11.520Z,13.60
2023-02-19T12:49:07.269Z,13.77
2023-02-19T12:51:55.302Z,13.32
2023-02-19T12:54:42.122Z,13.75
2023-02-19T12:57:38.887Z,13.70
2023-02-19T13:00:21.026Z,13.13
2023-02-19T13:02:58.899Z,14.23
2023-02-19T13:05:47.812Z,13.13
2023-02-19T13:08:25.267Z,13.57
2023-02-19T13:11:01.371Z,13.18
2023-02-19T13:13:38.572Z,13.75
2023-02-19T13:16:18.486Z,13.30
2023-02-19T13:18:57.612Z,14.43
2023-02-19T13:21:48.622Z,13.60
2023-02-19T13:24:40.401Z,13.40
2023-02-19T13:27:23.760Z,13.63
2023-02-19T13:29:56.262Z,13.30
2023-02-19T13:32:53.806Z,13.38
2023-02-19T13:35:42.466Z,13.10
2023-02-19T13:38:12.308Z,13.55
2023-02-19T13:40:56.541Z,13.32
2023-02-19T13:43:35.476Z,13.00
2023-02-19T13:46:11.599Z,13.60
2023-02-19T13:48:44.304Z,14.70
2023-02-19T13:51:21.697Z,13.60
2023-02-19T13:53:50.346Z,13.60
2023-02-19T13:56:34.863Z,14.20
2023-02-19T13:59:23.645Z,14.95
2023-02-19T14:01:51.485Z,13.50
2023-02-19T14:04:48.472Z,14.07
2023-02-19T14:07:15.228Z,13.35
2023-02-19T14:09:45.070Z,13.60
2023-02-19T14:12:16.048Z,13.70
2023-02-19T14:14:45.322Z,13.45
2023-02-19T14:17:47.922Z,13.60
2023-02-19T14:20:17.299Z,14.50
2023-02-19T14:22:49.783Z,14.20
2023-02-19T14:25:31.919Z,13.73
2023-02-19T14:28:14.416Z,13.70
2023-02-19T14:30:55.235Z,13.77
2023-02-19T14:33:35.684Z,13.60
2023-02-19T14:36:25.185Z,13.90
2023-02-19T14:38:54.988Z,13.30
2023-02-19T14:41:23.429Z,13.40
2023-02-19T14:43:53.604Z,13.60
2023-02-19T14:46:32.307Z,13.60
2023-02-19T14:49:17.736Z,13.70
2023-02-19T14:51:49.526Z,14.00
2023-02-19T14:54:38.932Z,14.17
2023-02-19T14:57:12.813Z,13.80
2023-02-19T14:59:39.846Z,14.90
2023-02-19T15:02:27.116Z,14.10
2023-02-19T15:04:55.034Z,14.60
2023-02-19T15:07:26.239Z,14.48
2023-02-19T15:09:57.537Z,15.75
2023-02-19T15:12:26.971Z,14.60
2023-02-19T15:14:59.539Z,14.68
2023-02-19T15:17:29.557Z,14.40
2023-02-19T15:19:58.875Z,13.90
2023-02-19T15:22:28.578Z,13.88
2023-02-19T15:24:55.805Z,14.50
2023-02-19T15:27:24.587Z,13.90
2023-02-19T15:29:53.652Z,14.30
2023-02-19T15:32:28.686Z,14.40
2023-02-19T15:35:01.191Z,14.10
2023-02-19T15:37:31.246Z,14.30
2023-02-19T15:40:01.000Z,14.77
2023-02-19T15:42:31.078Z,14.68
2023-02-19T15:45:07.489Z,14.88
2023-02-19T15:47:50.799Z,14.33
2023-02-19T15:50:23.743Z,13.80
2023-02-19T15:53:00.873Z,14.85
2023-02-19T15:55:50.521Z,14.40
2023-02-19T15:58:23.844Z,14.60
2023-02-19T16:00:55.564Z,14.38
2023-02-19T16:03:24.926Z,14.63
2023-02-19T16:06:18.423Z,15.13
2023-02-19T16:09:02.041Z,14.20
2023-02-19T16:11:36.697Z,14.20
2023-02-19T16:14:22.729Z,14.55
2023-02-19T16:16:53.721Z,15.60
2023-02-19T16:19:28.490Z,16.15
2023-02-19T16:21:55.849Z,14.07
2023-02-19T16:24:45.320Z,15.13
2023-02-19T16:27:14.382Z,15.53
2023-02-19T16:29:41.488Z,14.90
2023-02-19T16:32:17.111Z,15.10
2023-02-19T16:34:49.125Z,15.87
2023-02-19T16:37:36.261Z,14.70
2023-02-19T16:40:09.196Z,14.10
2023-02-19T16:42:48.702Z,15.85
2023-02-19T16:45:16.787Z,14.00
2023-02-19T16:47:48.291Z,15.00
2023-02-19T16:50:17.726Z,14.48
2023-02-19T16:52:55.284Z,15.20
2023-02-19T16:55:22.937Z,16.00
2023-02-19T16:57:49.880Z,15.30
2023-02-19T17:00:25.472Z,14.70
2023-02-19T17:02:55.469Z,15.75
2023-02-19T17:05:23.920Z,15.50
2023-02-19T17:07:51.008Z,15.98
2023-02-19T17:10:22.896Z,15.32
2023-02-19T17:12:50.850Z,15.50
2023-02-19T17:15:18.309Z,15.52
2023-02-19T17:17:45.432Z,15.30
2023-02-19T17:20:18.428Z,15.10
2023-02-19T17:22:45.294Z,15.00
2023-02-19T17:25:12.249Z,16.17
2023-02-19T17:27:39.347Z,15.13
2023-02-19T17:30:31.414Z,15.05
2023-02-19T17:32:58.642Z,15.90
2023-02-19T17:35:25.819Z,15.88
2023-02-19T17:37:53.539Z,14.93
2023-02-19T17:40:32.818Z,16.33
2023-02-19T17:43:01.616Z,14.97
2023-02-19T17:45:28.548Z,15.10
2023-02-19T17:47:55.449Z,17.50
2023-02-19T17:50:28.666Z,17.48
2023-02-19T17:52:55.517Z,15.27
2023-02-19T17:55:22.435Z,18.75
2023-02-19T17:57:50.833Z,18.30
2023-02-19T18:00:27.326Z,15.40
2023-02-19T18:02:54.762Z,16.77
2023-02-19T18:05:22.524Z,16.80
2023-02-19T18:07:51.472Z,16.73
2023-02-19T18:10:20.562Z,16.58
2023-02-19T18:12:47.501Z,17.15
2023-02-19T18:15:26.780Z,16.58
2023-02-19T18:17:55.179Z,16.65
2023-02-19T18:20:24.858Z,17.30
2023-02-19T18:22:52.652Z,16.20
2023-02-19T18:25:20.312Z,17.75
2023-02-19T18:27:47.556Z,17.70
2023-02-19T18:30:17.607Z,17.10
2023-02-19T18:32:47.623Z,17.27
2023-02-19T18:35:16.549Z,20.30
2023-02-19T18:37:43.423Z,17.70
2023-02-19T18:40:10.883Z,15.80
2023-02-19T18:42:37.846Z,21.73
2023-02-19T18:45:04.907Z,19.30
2023-02-19T18:47:31.725Z,15.45
2023-02-19T18:49:59.589Z,15.75
2023-02-19T18:52:27.909Z,16.13
2023-02-19T18:54:57.242Z,16.67
2023-02-19T18:57:25.832Z,15.77
2023-02-19T18:59:53.593Z,16.30
2023-02-19T19:02:20.776Z,17.50
2023-02-19T19:04:52.785Z,15.38
2023-02-19T19:07:20.598Z,15.50
2023-02-19T19:09:48.199Z,15.80
2023-02-19T19:12:15.288Z,16.00
2023-02-19T19:14:42.473Z,16.30
2023-02-19T19:17:09.462Z,16.95
2023-02-19T19:19:36.349Z,15.57
2023-02-19T19:22:03.357Z,17.40
2023-02-19T19:24:30.225Z,15.65
2023-02-19T19:26:57.138Z,15.65
2023-02-19T19:29:24.368Z,16.65
2023-02-19T19:31:51.555Z,16.48
2023-02-19T19:34:19.101Z,15.50
2023-02-19T19:36:47.045Z,15.00
2023-02-19T19:39:14.045Z,16.85
2023-02-19T19:41:41.029Z,16.42
2023-02-19T19:44:09.109Z,16.15
2023-02-19T19:46:42.574Z,16.50
2023-02-19T19:49:09.431Z,16.83
2023-02-19T19:51:36.504Z,17.30
2023-02-19T19:54:04.187Z,15.67
2023-02-19T19:56:31.509Z,15.90
2023-02-19T19:58:58.513Z,14.90
2023-02-19T20:01:25.499Z,15.55
2023-02-19T20:03:52.400Z,15.13
2023-02-19T20:06:27.891Z,15.97
2023-02-19T20:08:55.483Z,17.50
2023-02-19T20:11:22.801Z,15.80
2023-02-19T20:13:50.015Z,16.58
2023-02-19T20:16:16.906Z,16.65
2023-02-19T20:18:43.839Z,16.05
2023-02-19T20:21:11.369Z,16.83
2023-02-19T20:23:39.746Z,16.38
2023-02-19T20:26:07.424Z,15.93
2023-02-19T20:28:34.295Z,16.50
2023-02-19T20:31:01.332Z,15.90
2023-02-19T20:33:28.224Z,15.93
2023-02-19T20:35:56.943Z,16.58
2023-02-19T20:38:24.006Z,15.90
2023-02-19T20:40:50.942Z,15.32
2023-02-19T20:43:17.918Z,16.67
2023-02-19T20:45:46.472Z,15.70
2023-02-19T20:48:18.470Z,16.50
2023-02-19T20:50:45.298Z,15.57
2023-02-19T20:53:12.328Z,17.45
2023-02-19T20:55:39.266Z,17.40
2023-02-19T20:58:06.202Z,16.08
2023-02-19T21:00:33.132Z,16.20
2023-02-19T21:03:00.042Z,15.63
2023-02-19T21:05:26.969Z,19.38
2023-02-19T21:07:53.797Z,16.30
2023-02-19T21:10:20.643Z,15.80
2023-02-19T21:12:48.087Z,16.52
2023-02-19T21:15:15.033Z,17.58
2023-02-19T21:17:44.873Z,15.77
2023-02-19T21:20:11.960Z,16.83
2023-02-19T21:22:38.876Z,17.13
2023-02-19T21:25:06.124Z,15.82
2023-02-19T21:27:32.977Z,17.00
2023-02-19T21:29:59.885Z,18.00
2023-02-19T21:32:26.922Z,17.60
2023-02-19T21:34:54.021Z,15.75
2023-02-19T21:37:20.888Z,15.90
2023-02-19T21:39:47.746Z,15.80
2023-02-19T21:42:14.629Z,15.80
2023-02-19T21:44:43.072Z,15.65
2023-02-19T21:47:12.320Z,16.80
2023-02-19T21:49:41.766Z,16.00
2023-02-19T21:52:09.186Z,15.85
2023-02-19T21:54:36.096Z,16.30
2023-02-19T21:57:03.698Z,15.63
2023-02-19T21:59:30.554Z,15.48
2023-02-19T22:01:57.430Z,15.18
2023-02-19T22:04:24.624Z,16.10
2023-02-19T22:06:56.203Z,15.43
2023-02-19T22:09:23.510Z,16.60
2023-02-19T22:11:50.597Z,15.90
2023-02-19T22:14:17.804Z,16.50
2023-02-19T22:16:44.845Z,15.30
2023-02-19T22:19:12.797Z,16.17
2023-02-19T22:21:43.942Z,15.43
2023-02-19T22:24:19.457Z,15.38
2023-02-19T22:26:47.274Z,15.77
2023-02-19T22:29:15.431Z,15.63
2023-02-19T22:31:42.846Z,15.90
2023-02-19T22:34:09.988Z,16.00
2023-02-19T22:36:40.338Z,16.02
2023-02-19T22:39:14.789Z,16.13
2023-02-19T22:41:45.185Z,16.30
2023-02-19T22:44:12.725Z,15.68
2023-02-19T22:46:39.640Z,16.02
2023-02-19T22:49:07.297Z,16.00
2023-02-19T22:51:35.652Z,15.60
2023-02-19T22:54:02.769Z,16.20
2023-02-19T22:56:29.928Z,15.75
2023-02-19T22:58:58.012Z,16.58
2023-02-19T23:01:25.616Z,18.25
2023-02-19T23:03:58.047Z,15.80
2023-02-19T23:06:27.917Z,16.40
2023-02-19T23:08:56.658Z,17.10
2023-02-19T23:11:26.326Z,15.90
2023-02-19T23:13:53.673Z,16.30
2023-02-19T23:16:21.278Z,15.63
2023-02-19T23:18:48.797Z,15.95
2023-02-19T23:21:17.019Z,15.70
2023-02-19T23:23:44.628Z,15.80
2023-02-19T23:26:12.704Z,15.60
2023-02-19T23:28:40.458Z,15.90
2023-02-19T23:31:07.929Z,15.40
2023-02-19T23:33:35.516Z,15.80
2023-02-19T23:36:02.508Z,15.65
2023-02-19T23:38:29.373Z,15.88
2023-02-19T23:40:56.305Z,17.98
2023-02-19T23:43:23.192Z,15.65
2023-02-19T23:45:50.094Z,14.70
2023-02-19T23:48:17.166Z,16.48
2023-02-19T23:50:44.071Z,15.60
2023-02-19T23:53:10.999Z,15.95
2023-02-19T23:55:37.881Z,15.98
2023-02-19T23:58:04.802Z,17.02
